sensor_id;sensor_type;location;lat;lon;timestamp;pressure;altitude;pressure_sealevel;temperature;humidity
42411;BME280;28056;51.112;0.984;2022-08-16T00:00:09;99726.80;;;23.50;45.64
42411;BME280;28056;51.112;0.984;2022-08-16T00:04:54;99725.59;;;23.70;44.59
42411;BME280;28056;51.112;0.984;2022-08-16T00:07:22;99725.82;;;23.69;44.52
42411;BME280;28056;51.112;0.984;2022-08-16T00:09:50;99723.82;;;23.77;44.76
42411;BME280;28056;51.112;0.984;2022-08-16T00:12:17;99726.62;;;23.76;44.56
42411;BME280;28056;51.112;0.984;2022-08-16T00:14:45;99730.47;;;23.34;45.27
42411;BME280;28056;51.112;0.984;2022-08-16T00:17:13;99730.33;;;23.22;45.39
42411;BME280;28056;51.112;0.984;2022-08-16T00:19:40;99734.13;;;22.97;45.74
42411;BME280;28056;51.112;0.984;2022-08-16T00:22:08;99737.45;;;23.03;45.61
42411;BME280;28056;51.112;0.984;2022-08-16T00:24:35;99738.65;;;22.80;46.54
42411;BME280;28056;51.112;0.984;2022-08-16T00:27:03;99741.92;;;23.14;45.82
42411;BME280;28056;51.112;0.984;2022-08-16T00:29:31;99746.17;;;23.12;45.94
42411;BME280;28056;51.112;0.984;2022-08-16T00:32:02;99746.63;;;22.87;46.20
42411;BME280;28056;51.112;0.984;2022-08-16T00:34:30;99743.20;;;22.78;46.34
42411;BME280;28056;51.112;0.984;2022-08-16T00:36:58;99740.17;;;22.68;47.09
42411;BME280;28056;51.112;0.984;2022-08-16T00:39:26;99738.78;;;22.72;47.20
42411;BME280;28056;51.112;0.984;2022-08-16T00:41:53;99736.80;;;22.77;46.90
42411;BME280;28056;51.112;0.984;2022-08-16T00:44:21;99733.13;;;22.71;46.29
42411;BME280;28056;51.112;0.984;2022-08-16T00:46:52;99729.06;;;22.31;46.84
42411;BME280;28056;51.112;0.984;2022-08-16T00:49:21;99729.38;;;22.45;46.50
42411;BME280;28056;51.112;0.984;2022-08-16T00:51:49;99726.42;;;22.80;46.26
42411;BME280;28056;51.112;0.984;2022-08-16T00:54:18;99726.54;;;22.97;45.98
42411;BME280;28056;51.112;0.984;2022-08-16T00:56:48;99726.08;;;22.74;45.96
42411;BME280;28056;51.112;0.984;2022-08-16T00:59:19;99727.83;;;23.10;45.69
42411;BME280;28056;51.112;0.984;2022-08-16T01:01:47;99728.17;;;23.04;45.73
42411;BME280;28056;51.112;0.984;2022-08-16T01:04:19;99725.97;;;22.62;46.33
42411;BME280;28056;51.112;0.984;2022-08-16T01:06:47;99723.55;;;22.69;46.52
42411;BME280;28056;51.112;0.984;2022-08-16T01:09:16;99722.55;;;22.34;46.89
42411;BME280;28056;51.112;0.984;2022-08-16T01:11:44;99724.48;;;22.05;47.18
42411;BME280;28056;51.112;0.984;2022-08-16T01:14:15;99723.22;;;22.37;46.96
42411;BME280;28056;51.112;0.984;2022-08-16T01:16:45;99724.57;;;22.28;47.17
42411;BME280;28056;51.112;0.984;2022-08-16T01:19:19;99718.41;;;22.35;47.19
42411;BME280;28056;51.112;0.984;2022-08-16T01:21:53;99716.37;;;21.99;47.33
42411;BME280;28056;51.112;0.984;2022-08-16T01:24:26;99710.14;;;22.12;46.83
42411;BME280;28056;51.112;0.984;2022-08-16T01:26:59;99711.00;;;21.87;47.23
42411;BME280;28056;51.112;0.984;2022-08-16T01:29:31;99704.38;;;21.93;46.86
42411;BME280;28056;51.112;0.984;2022-08-16T01:32:00;99694.74;;;22.29;46.32
42411;BME280;28056;51.112;0.984;2022-08-16T01:34:28;99696.36;;;22.10;46.98
42411;BME280;28056;51.112;0.984;2022-08-16T01:36:59;99695.88;;;22.20;46.28
42411;BME280;28056;51.112;0.984;2022-08-16T01:39:27;99693.51;;;22.58;46.05
42411;BME280;28056;51.112;0.984;2022-08-16T01:41:54;99690.79;;;21.91;46.90
42411;BME280;28056;51.112;0.984;2022-08-16T01:44:21;99696.86;;;22.50;46.80
42411;BME280;28056;51.112;0.984;2022-08-16T01:46:49;99699.37;;;22.83;46.02
42411;BME280;28056;51.112;0.984;2022-08-16T01:49:20;99701.70;;;22.70;45.71
42411;BME280;28056;51.112;0.984;2022-08-16T01:51:53;99702.75;;;22.99;45.60
42411;BME280;28056;51.112;0.984;2022-08-16T01:54:22;99702.43;;;22.73;45.35
42411;BME280;28056;51.112;0.984;2022-08-16T01:56:49;99704.55;;;22.42;45.42
42411;BME280;28056;51.112;0.984;2022-08-16T01:59:18;99707.22;;;22.69;45.23
42411;BME280;28056;51.112;0.984;2022-08-16T02:01:47;99708.01;;;22.41;45.34
42411;BME280;28056;51.112;0.984;2022-08-16T02:04:14;99703.37;;;22.65;45.09
42411;BME280;28056;51.112;0.984;2022-08-16T02:06:42;99705.15;;;22.89;45.00
42411;BME280;28056;51.112;0.984;2022-08-16T02:09:11;99709.14;;;22.49;44.81
42411;BME280;28056;51.112;0.984;2022-08-16T02:11:40;99713.86;;;22.50;44.78
42411;BME280;28056;51.112;0.984;2022-08-16T02:14:09;99720.82;;;22.47;45.21
42411;BME280;28056;51.112;0.984;2022-08-16T02:16:37;99717.74;;;22.67;45.64
42411;BME280;28056;51.112;0.984;2022-08-16T02:19:05;99715.46;;;22.43;45.83
42411;BME280;28056;51.112;0.984;2022-08-16T02:21:33;99713.91;;;22.21;45.76
42411;BME280;28056;51.112;0.984;2022-08-16T02:24:00;99709.87;;;21.54;47.61
42411;BME280;28056;51.112;0.984;2022-08-16T02:26:27;99711.33;;;21.86;46.57
42411;BME280;28056;51.112;0.984;2022-08-16T02:28:54;99711.59;;;22.07;46.50
42411;BME280;28056;51.112;0.984;2022-08-16T02:31:22;99709.69;;;22.04;46.24
42411;BME280;28056;51.112;0.984;2022-08-16T02:33:50;99709.22;;;22.01;46.35
42411;BME280;28056;51.112;0.984;2022-08-16T02:36:17;99704.66;;;22.26;45.95
42411;BME280;28056;51.112;0.984;2022-08-16T02:38:45;99709.63;;;22.37;45.80
42411;BME280;28056;51.112;0.984;2022-08-16T02:41:12;99708.76;;;22.63;45.70
42411;BME280;28056;51.112;0.984;2022-08-16T02:43:40;99713.48;;;22.31;46.09
42411;BME280;28056;51.112;0.984;2022-08-16T02:46:09;99710.23;;;22.41;45.84
42411;BME280;28056;51.112;0.984;2022-08-16T02:48:37;99709.69;;;21.65;47.34
42411;BME280;28056;51.112;0.984;2022-08-16T02:51:07;99712.78;;;22.09;46.41
42411;BME280;28056;51.112;0.984;2022-08-16T02:53:41;99718.17;;;22.17;46.01
42411;BME280;28056;51.112;0.984;2022-08-16T02:56:10;99727.68;;;22.20;46.02
42411;BME280;28056;51.112;0.984;2022-08-16T02:58:37;99734.02;;;22.28;46.38
42411;BME280;28056;51.112;0.984;2022-08-16T03:01:05;99731.41;;;22.01;46.41
42411;BME280;28056;51.112;0.984;2022-08-16T03:03:33;99729.71;;;21.56;46.85
42411;BME280;28056;51.112;0.984;2022-08-16T03:06:00;99731.84;;;20.58;48.71
42411;BME280;28056;51.112;0.984;2022-08-16T03:08:27;99724.85;;;21.86;47.31
42411;BME280;28056;51.112;0.984;2022-08-16T03:10:55;99724.81;;;21.24;47.92
42411;BME280;28056;51.112;0.984;2022-08-16T03:13:22;99730.06;;;21.85;47.37
42411;BME280;28056;51.112;0.984;2022-08-16T03:15:49;99739.09;;;21.61;47.35
42411;BME280;28056;51.112;0.984;2022-08-16T03:18:17;99745.02;;;21.56;47.55
42411;BME280;28056;51.112;0.984;2022-08-16T03:20:44;99747.27;;;21.76;47.00
42411;BME280;28056;51.112;0.984;2022-08-16T03:23:11;99745.89;;;21.77;47.02
42411;BME280;28056;51.112;0.984;2022-08-16T03:25:39;99744.45;;;21.84;46.91
42411;BME280;28056;51.112;0.984;2022-08-16T03:28:07;99742.90;;;21.83;46.70
42411;BME280;28056;51.112;0.984;2022-08-16T03:30:36;99744.99;;;21.49;47.00
42411;BME280;28056;51.112;0.984;2022-08-16T03:33:03;99743.27;;;21.93;46.44
42411;BME280;28056;51.112;0.984;2022-08-16T03:35:33;99739.06;;;21.41;47.50
42411;BME280;28056;51.112;0.984;2022-08-16T03:38:05;99733.95;;;21.33;47.88
42411;BME280;28056;51.112;0.984;2022-08-16T03:40:34;99727.95;;;21.58;46.97
42411;BME280;28056;51.112;0.984;2022-08-16T03:43:09;99722.29;;;21.43;47.19
42411;BME280;28056;51.112;0.984;2022-08-16T03:45:38;99722.21;;;20.84;48.66
42411;BME280;28056;51.112;0.984;2022-08-16T03:48:06;99720.74;;;21.39;47.67
42411;BME280;28056;51.112;0.984;2022-08-16T03:50:34;99722.26;;;21.71;47.43
42411;BME280;28056;51.112;0.984;2022-08-16T03:53:02;99721.38;;;21.46;47.11
42411;BME280;28056;51.112;0.984;2022-08-16T03:55:30;99714.23;;;20.50;48.87
42411;BME280;28056;51.112;0.984;2022-08-16T03:57:58;99714.03;;;20.83;48.59
42411;BME280;28056;51.112;0.984;2022-08-16T04:00:28;99720.42;;;21.30;47.12
42411;BME280;28056;51.112;0.984;2022-08-16T04:02:58;99723.19;;;21.49;46.59
42411;BME280;28056;51.112;0.984;2022-08-16T04:05:26;99726.26;;;21.65;46.65
42411;BME280;28056;51.112;0.984;2022-08-16T04:07:54;99726.48;;;21.40;46.67
42411;BME280;28056;51.112;0.984;2022-08-16T04:10:22;99723.68;;;21.36;46.45
42411;BME280;28056;51.112;0.984;2022-08-16T04:12:49;99722.55;;;20.96;47.11
42411;BME280;28056;51.112;0.984;2022-08-16T04:15:16;99725.34;;;21.02;47.51
42411;BME280;28056;51.112;0.984;2022-08-16T04:17:44;99717.57;;;20.87;47.35
42411;BME280;28056;51.112;0.984;2022-08-16T04:20:13;99713.52;;;21.71;46.84
42411;BME280;28056;51.112;0.984;2022-08-16T04:22:41;99715.75;;;21.45;46.76
42411;BME280;28056;51.112;0.984;2022-08-16T04:25:10;99716.89;;;21.10;47.98
42411;BME280;28056;51.112;0.984;2022-08-16T04:27:39;99716.69;;;20.46;48.97
42411;BME280;28056;51.112;0.984;2022-08-16T04:30:09;99714.99;;;20.64;49.11
42411;BME280;28056;51.112;0.984;2022-08-16T04:32:39;99715.25;;;20.49;50.17
42411;BME280;28056;51.112;0.984;2022-08-16T04:35:09;99713.69;;;20.46;50.13
42411;BME280;28056;51.112;0.984;2022-08-16T04:37:37;99717.60;;;20.83;49.58
42411;BME280;28056;51.112;0.984;2022-08-16T04:40:06;99722.70;;;21.43;48.63
42411;BME280;28056;51.112;0.984;2022-08-16T04:42:33;99720.94;;;21.61;48.37
42411;BME280;28056;51.112;0.984;2022-08-16T04:45:00;99721.39;;;21.34;48.35
42411;BME280;28056;51.112;0.984;2022-08-16T04:47:29;99727.32;;;21.45;47.82
42411;BME280;28056;51.112;0.984;2022-08-16T04:49:56;99729.94;;;21.56;47.77
42411;BME280;28056;51.112;0.984;2022-08-16T04:52:23;99735.65;;;21.47;47.75
42411;BME280;28056;51.112;0.984;2022-08-16T04:54:50;99731.72;;;21.13;47.24
42411;BME280;28056;51.112;0.984;2022-08-16T04:57:19;99734.16;;;20.76;47.81
42411;BME280;28056;51.112;0.984;2022-08-16T04:59:46;99732.84;;;20.07;49.01
42411;BME280;28056;51.112;0.984;2022-08-16T05:02:14;99732.61;;;19.99;49.36
42411;BME280;28056;51.112;0.984;2022-08-16T05:04:41;99734.44;;;20.34;49.23
42411;BME280;28056;51.112;0.984;2022-08-16T05:07:08;99733.72;;;19.53;51.19
42411;BME280;28056;51.112;0.984;2022-08-16T05:09:36;99738.77;;;20.06;49.78
42411;BME280;28056;51.112;0.984;2022-08-16T05:12:04;99741.47;;;19.98;49.90
42411;BME280;28056;51.112;0.984;2022-08-16T05:14:32;99747.23;;;20.26;49.73
42411;BME280;28056;51.112;0.984;2022-08-16T05:16:59;99746.25;;;20.57;49.92
42411;BME280;28056;51.112;0.984;2022-08-16T05:19:26;99745.40;;;20.60;50.00
42411;BME280;28056;51.112;0.984;2022-08-16T05:21:54;99747.27;;;20.03;51.58
42411;BME280;28056;51.112;0.984;2022-08-16T05:24:21;99754.62;;;21.08;49.57
42411;BME280;28056;51.112;0.984;2022-08-16T05:26:49;99759.79;;;21.27;49.37
42411;BME280;28056;51.112;0.984;2022-08-16T05:29:16;99763.69;;;20.60;49.76
42411;BME280;28056;51.112;0.984;2022-08-16T05:31:43;99766.72;;;20.72;50.57
42411;BME280;28056;51.112;0.984;2022-08-16T05:34:11;99768.29;;;20.45;51.18
42411;BME280;28056;51.112;0.984;2022-08-16T05:36:39;99771.73;;;21.18;49.67
42411;BME280;28056;51.112;0.984;2022-08-16T05:39:08;99780.51;;;21.00;49.72
42411;BME280;28056;51.112;0.984;2022-08-16T05:41:36;99789.96;;;20.73;49.95
42411;BME280;28056;51.112;0.984;2022-08-16T05:44:04;99794.73;;;19.99;50.56
42411;BME280;28056;51.112;0.984;2022-08-16T05:46:31;99801.96;;;20.76;50.11
42411;BME280;28056;51.112;0.984;2022-08-16T05:49:00;99798.86;;;20.57;49.94
42411;BME280;28056;51.112;0.984;2022-08-16T05:51:27;99796.33;;;20.24;52.03
42411;BME280;28056;51.112;0.984;2022-08-16T05:53:54;99794.67;;;20.17;52.38
42411;BME280;28056;51.112;0.984;2022-08-16T05:56:22;99792.12;;;20.79;51.82
42411;BME280;28056;51.112;0.984;2022-08-16T05:58:49;99789.55;;;20.67;52.08
42411;BME280;28056;51.112;0.984;2022-08-16T06:01:17;99786.28;;;20.64;51.93
42411;BME280;28056;51.112;0.984;2022-08-16T06:03:44;99791.33;;;21.13;51.31
42411;BME280;28056;51.112;0.984;2022-08-16T06:06:11;99800.97;;;21.43;51.01
42411;BME280;28056;51.112;0.984;2022-08-16T06:08:39;99806.34;;;21.82;50.93
42411;BME280;28056;51.112;0.984;2022-08-16T06:11:08;99804.53;;;20.80;52.74
42411;BME280;28056;51.112;0.984;2022-08-16T06:13:36;99802.66;;;20.95;53.13
42411;BME280;28056;51.112;0.984;2022-08-16T06:16:04;99802.30;;;21.24;52.57
42411;BME280;28056;51.112;0.984;2022-08-16T06:18:32;99799.32;;;21.24;52.47
42411;BME280;28056;51.112;0.984;2022-08-16T06:20:59;99797.87;;;21.13;52.61
42411;BME280;28056;51.112;0.984;2022-08-16T06:23:27;99798.65;;;21.59;52.14
42411;BME280;28056;51.112;0.984;2022-08-16T06:25:55;99798.37;;;20.30;55.20
42411;BME280;28056;51.112;0.984;2022-08-16T06:28:22;99805.37;;;21.03;53.85
42411;BME280;28056;51.112;0.984;2022-08-16T06:30:50;99804.21;;;20.61;55.33
42411;BME280;28056;51.112;0.984;2022-08-16T06:33:17;99810.20;;;21.73;52.54
42411;BME280;28056;51.112;0.984;2022-08-16T06:35:45;99816.56;;;22.11;50.86
42411;BME280;28056;51.112;0.984;2022-08-16T06:38:13;99819.08;;;21.83;51.17
42411;BME280;28056;51.112;0.984;2022-08-16T06:40:40;99814.76;;;22.21;50.47
42411;BME280;28056;51.112;0.984;2022-08-16T06:43:08;99813.71;;;22.33;50.62
42411;BME280;28056;51.112;0.984;2022-08-16T06:45:36;99810.97;;;22.53;50.56
42411;BME280;28056;51.112;0.984;2022-08-16T06:48:03;99808.47;;;22.02;51.08
42411;BME280;28056;51.112;0.984;2022-08-16T06:50:31;99802.86;;;22.28;51.13
42411;BME280;28056;51.112;0.984;2022-08-16T06:52:59;99799.98;;;21.95;53.05
42411;BME280;28056;51.112;0.984;2022-08-16T06:55:28;99804.74;;;22.26;51.72
42411;BME280;28056;51.112;0.984;2022-08-16T06:57:56;99803.39;;;22.61;51.62
42411;BME280;28056;51.112;0.984;2022-08-16T07:00:25;99806.45;;;22.82;51.22
42411;BME280;28056;51.112;0.984;2022-08-16T07:02:52;99800.59;;;22.90;50.86
42411;BME280;28056;51.112;0.984;2022-08-16T07:05:20;99805.46;;;23.00;51.13
42411;BME280;28056;51.112;0.984;2022-08-16T07:07:48;99811.56;;;22.82;50.54
42411;BME280;28056;51.112;0.984;2022-08-16T07:10:16;99821.28;;;23.32;50.09
42411;BME280;28056;51.112;0.984;2022-08-16T07:12:44;99820.94;;;23.36;50.08
42411;BME280;28056;51.112;0.984;2022-08-16T07:15:12;99818.77;;;23.32;49.73
42411;BME280;28056;51.112;0.984;2022-08-16T07:17:39;99818.09;;;22.89;49.71
42411;BME280;28056;51.112;0.984;2022-08-16T07:20:08;99816.09;;;22.91;49.37
42411;BME280;28056;51.112;0.984;2022-08-16T07:22:36;99814.77;;;23.18;49.12
42411;BME280;28056;51.112;0.984;2022-08-16T07:25:06;99819.73;;;23.09;49.52
42411;BME280;28056;51.112;0.984;2022-08-16T07:27:34;99816.78;;;23.23;49.11
42411;BME280;28056;51.112;0.984;2022-08-16T07:30:05;99818.69;;;23.13;48.73
42411;BME280;28056;51.112;0.984;2022-08-16T07:32:33;99826.59;;;23.90;48.84
42411;BME280;28056;51.112;0.984;2022-08-16T07:35:01;99825.95;;;23.31;47.70
42411;BME280;28056;51.112;0.984;2022-08-16T07:37:28;99821.99;;;23.39;48.67
42411;BME280;28056;51.112;0.984;2022-08-16T07:39:55;99826.08;;;23.81;47.58
42411;BME280;28056;51.112;0.984;2022-08-16T07:42:22;99829.84;;;22.68;49.29
42411;BME280;28056;51.112;0.984;2022-08-16T07:44:50;99826.97;;;21.36;52.26
42411;BME280;28056;51.112;0.984;2022-08-16T07:47:17;99832.62;;;22.34;51.19
42411;BME280;28056;51.112;0.984;2022-08-16T07:49:45;99831.63;;;22.23;51.57
42411;BME280;28056;51.112;0.984;2022-08-16T07:52:12;99835.10;;;22.04;51.96
42411;BME280;28056;51.112;0.984;2022-08-16T07:54:40;99845.67;;;22.55;50.68
42411;BME280;28056;51.112;0.984;2022-08-16T07:57:07;99848.53;;;23.13;49.00
42411;BME280;28056;51.112;0.984;2022-08-16T07:59:36;99846.29;;;22.56;51.43
42411;BME280;28056;51.112;0.984;2022-08-16T08:02:04;99847.28;;;22.74;50.22
42411;BME280;28056;51.112;0.984;2022-08-16T08:04:31;99847.67;;;22.97;50.39
42411;BME280;28056;51.112;0.984;2022-08-16T08:06:59;99845.79;;;22.51;51.06
42411;BME280;28056;51.112;0.984;2022-08-16T08:09:27;99847.94;;;23.34;49.46
42411;BME280;28056;51.112;0.984;2022-08-16T08:11:54;99846.84;;;23.16;49.46
42411;BME280;28056;51.112;0.984;2022-08-16T08:14:21;99843.54;;;23.53;48.24
42411;BME280;28056;51.112;0.984;2022-08-16T08:16:48;99833.68;;;21.81;51.46
42411;BME280;28056;51.112;0.984;2022-08-16T08:19:16;99837.52;;;20.99;53.70
42411;BME280;28056;51.112;0.984;2022-08-16T08:21:44;99840.86;;;20.98;53.19
42411;BME280;28056;51.112;0.984;2022-08-16T08:24:11;99838.58;;;22.00;51.46
42411;BME280;28056;51.112;0.984;2022-08-16T08:26:38;99844.92;;;22.71;50.03
42411;BME280;28056;51.112;0.984;2022-08-16T08:29:06;99847.32;;;22.65;49.79
42411;BME280;28056;51.112;0.984;2022-08-16T08:31:33;99847.40;;;23.93;48.36
42411;BME280;28056;51.112;0.984;2022-08-16T08:34:00;99854.53;;;23.76;48.08
42411;BME280;28056;51.112;0.984;2022-08-16T08:36:30;99859.87;;;24.08;47.82
42411;BME280;28056;51.112;0.984;2022-08-16T08:38:58;99867.12;;;24.14;48.41
42411;BME280;28056;51.112;0.984;2022-08-16T08:41:26;99871.34;;;24.01;47.56
42411;BME280;28056;51.112;0.984;2022-08-16T08:43:53;99880.94;;;24.28;47.37
42411;BME280;28056;51.112;0.984;2022-08-16T08:46:23;99892.58;;;23.73;48.16
42411;BME280;28056;51.112;0.984;2022-08-16T08:48:52;99898.50;;;22.73;49.30
42411;BME280;28056;51.112;0.984;2022-08-16T08:51:20;99907.28;;;23.72;48.34
42411;BME280;28056;51.112;0.984;2022-08-16T08:53:47;99910.45;;;24.05;47.37
42411;BME280;28056;51.112;0.984;2022-08-16T08:56:15;99911.18;;;22.74;50.92
42411;BME280;28056;51.112;0.984;2022-08-16T08:58:42;99920.92;;;23.53;49.47
42411;BME280;28056;51.112;0.984;2022-08-16T09:01:11;99925.49;;;22.68;50.93
42411;BME280;28056;51.112;0.984;2022-08-16T09:03:39;99925.04;;;22.80;50.64
42411;BME280;28056;51.112;0.984;2022-08-16T09:06:07;99923.82;;;22.34;51.82
42411;BME280;28056;51.112;0.984;2022-08-16T09:08:34;99922.74;;;23.06;50.02
42411;BME280;28056;51.112;0.984;2022-08-16T09:11:02;99924.27;;;23.21;50.27
42411;BME280;28056;51.112;0.984;2022-08-16T09:13:30;99930.91;;;23.83;48.71
42411;BME280;28056;51.112;0.984;2022-08-16T09:15:57;99933.58;;;23.00;50.68
42411;BME280;28056;51.112;0.984;2022-08-16T09:18:25;99934.99;;;23.11;50.27
42411;BME280;28056;51.112;0.984;2022-08-16T09:20:53;99937.96;;;23.71;49.41
42411;BME280;28056;51.112;0.984;2022-08-16T09:23:20;99936.32;;;23.08;50.85
42411;BME280;28056;51.112;0.984;2022-08-16T09:25:48;99931.14;;;23.00;51.39
42411;BME280;28056;51.112;0.984;2022-08-16T09:28:16;99931.74;;;23.50;50.38
42411;BME280;28056;51.112;0.984;2022-08-16T09:30:44;99934.30;;;22.64;51.90
42411;BME280;28056;51.112;0.984;2022-08-16T09:33:13;99939.37;;;23.24;51.25
42411;BME280;28056;51.112;0.984;2022-08-16T09:35:42;99938.87;;;22.84;51.93
42411;BME280;28056;51.112;0.984;2022-08-16T09:38:10;99940.14;;;22.87;51.13
42411;BME280;28056;51.112;0.984;2022-08-16T09:40:39;99937.12;;;23.40;50.60
42411;BME280;28056;51.112;0.984;2022-08-16T09:43:07;99928.17;;;22.84;50.83
42411;BME280;28056;51.112;0.984;2022-08-16T09:45:34;99930.46;;;23.39;50.81
42411;BME280;28056;51.112;0.984;2022-08-16T09:48:02;99934.11;;;24.09;49.55
42411;BME280;28056;51.112;0.984;2022-08-16T09:50:29;99936.98;;;23.59;49.69
42411;BME280;28056;51.112;0.984;2022-08-16T09:52:57;99938.92;;;24.03;49.30
42411;BME280;28056;51.112;0.984;2022-08-16T09:55:24;99932.92;;;23.46;50.77
42411;BME280;28056;51.112;0.984;2022-08-16T09:57:51;99931.56;;;23.90;50.55
42411;BME280;28056;51.112;0.984;2022-08-16T10:00:19;99931.59;;;22.81;51.86
42411;BME280;28056;51.112;0.984;2022-08-16T10:02:47;99937.11;;;23.47;50.36
42411;BME280;28056;51.112;0.984;2022-08-16T10:05:14;99939.43;;;24.38;47.38
42411;BME280;28056;51.112;0.984;2022-08-16T10:07:44;99933.69;;;22.77;51.29
42411;BME280;28056;51.112;0.984;2022-08-16T10:10:12;99938.71;;;24.42;48.03
42411;BME280;28056;51.112;0.984;2022-08-16T10:12:39;99940.08;;;23.56;48.62
42411;BME280;28056;51.112;0.984;2022-08-16T10:15:08;99943.89;;;24.05;46.99
42411;BME280;28056;51.112;0.984;2022-08-16T10:17:36;99944.47;;;23.95;46.55
42411;BME280;28056;51.112;0.984;2022-08-16T10:20:04;99947.22;;;24.81;45.63
42411;BME280;28056;51.112;0.984;2022-08-16T10:22:31;99950.51;;;24.55;45.91
42411;BME280;28056;51.112;0.984;2022-08-16T10:24:58;99954.60;;;24.32;46.52
42411;BME280;28056;51.112;0.984;2022-08-16T10:27:26;99956.19;;;23.82;45.26
42411;BME280;28056;51.112;0.984;2022-08-16T10:29:53;99956.74;;;23.20;46.29
42411;BME280;28056;51.112;0.984;2022-08-16T10:32:20;99953.96;;;22.55;47.27
42411;BME280;28056;51.112;0.984;2022-08-16T10:34:48;99954.47;;;23.89;42.80
42411;BME280;28056;51.112;0.984;2022-08-16T10:37:15;99957.05;;;24.57;43.05
42411;BME280;28056;51.112;0.984;2022-08-16T10:39:43;99954.20;;;24.59;41.76
42411;BME280;28056;51.112;0.984;2022-08-16T10:42:10;99955.21;;;23.17;43.06
42411;BME280;28056;51.112;0.984;2022-08-16T10:44:38;99958.04;;;24.74;42.88
42411;BME280;28056;51.112;0.984;2022-08-16T10:47:06;99957.40;;;25.44;42.31
42411;BME280;28056;51.112;0.984;2022-08-16T10:49:33;99959.17;;;26.01;39.25
42411;BME280;28056;51.112;0.984;2022-08-16T10:52:01;99962.50;;;25.71;39.63
42411;BME280;28056;51.112;0.984;2022-08-16T10:54:29;99967.22;;;25.06;40.63
42411;BME280;28056;51.112;0.984;2022-08-16T10:56:57;99962.83;;;25.51;40.73
42411;BME280;28056;51.112;0.984;2022-08-16T10:59:24;99964.21;;;26.34;39.97
42411;BME280;28056;51.112;0.984;2022-08-16T11:01:52;99967.70;;;25.93;39.35
42411;BME280;28056;51.112;0.984;2022-08-16T11:04:19;99968.79;;;25.76;39.49
42411;BME280;28056;51.112;0.984;2022-08-16T11:06:48;99978.22;;;24.77;40.41
42411;BME280;28056;51.112;0.984;2022-08-16T11:09:15;99979.05;;;25.05;39.89
42411;BME280;28056;51.112;0.984;2022-08-16T11:11:43;99981.37;;;25.06;40.25
42411;BME280;28056;51.112;0.984;2022-08-16T11:14:10;99982.54;;;25.18;40.54
42411;BME280;28056;51.112;0.984;2022-08-16T11:16:38;99977.00;;;25.61;40.45
42411;BME280;28056;51.112;0.984;2022-08-16T11:19:06;99970.53;;;25.60;40.62
42411;BME280;28056;51.112;0.984;2022-08-16T11:21:34;99972.63;;;25.38;40.94
42411;BME280;28056;51.112;0.984;2022-08-16T11:24:01;99980.34;;;25.17;41.24
42411;BME280;28056;51.112;0.984;2022-08-16T11:26:28;99986.29;;;25.81;41.42
42411;BME280;28056;51.112;0.984;2022-08-16T11:28:56;99994.26;;;25.46;40.76
42411;BME280;28056;51.112;0.984;2022-08-16T11:31:24;99998.88;;;25.49;40.57
42411;BME280;28056;51.112;0.984;2022-08-16T11:33:52;100000.24;;;24.59;42.35
42411;BME280;28056;51.112;0.984;2022-08-16T11:36:20;100005.44;;;24.74;42.41
42411;BME280;28056;51.112;0.984;2022-08-16T11:38:47;100008.06;;;24.24;42.61
42411;BME280;28056;51.112;0.984;2022-08-16T11:41:14;100008.69;;;24.06;44.58
42411;BME280;28056;51.112;0.984;2022-08-16T11:43:42;100011.70;;;24.53;44.66
42411;BME280;28056;51.112;0.984;2022-08-16T11:46:11;100013.03;;;24.10;46.78
42411;BME280;28056;51.112;0.984;2022-08-16T11:48:40;100015.32;;;21.81;51.71
42411;BME280;28056;51.112;0.984;2022-08-16T11:51:07;100013.00;;;21.11;53.49
42411;BME280;28056;51.112;0.984;2022-08-16T11:53:34;100015.73;;;20.78;55.00
42411;BME280;28056;51.112;0.984;2022-08-16T11:56:01;100016.86;;;20.71;55.59
42411;BME280;28056;51.112;0.984;2022-08-16T11:58:30;100012.43;;;21.44;53.53
42411;BME280;28056;51.112;0.984;2022-08-16T12:00:58;100011.92;;;23.80;48.58
42411;BME280;28056;51.112;0.984;2022-08-16T12:03:28;100012.84;;;22.41;51.72
42411;BME280;28056;51.112;0.984;2022-08-16T12:05:58;100010.92;;;21.65;51.89
42411;BME280;28056;51.112;0.984;2022-08-16T12:08:29;100010.15;;;23.37;50.17
42411;BME280;28056;51.112;0.984;2022-08-16T12:10:57;100008.95;;;21.83;51.40
42411;BME280;28056;51.112;0.984;2022-08-16T12:13:25;100011.94;;;22.24;49.91
42411;BME280;28056;51.112;0.984;2022-08-16T12:15:52;100007.67;;;23.53;48.86
42411;BME280;28056;51.112;0.984;2022-08-16T12:18:20;100008.45;;;24.17;48.02
42411;BME280;28056;51.112;0.984;2022-08-16T12:20:47;100011.80;;;24.26;46.68
42411;BME280;28056;51.112;0.984;2022-08-16T12:23:15;100013.00;;;24.51;48.13
42411;BME280;28056;51.112;0.984;2022-08-16T12:25:43;100013.84;;;24.93;47.02
42411;BME280;28056;51.112;0.984;2022-08-16T12:28:10;100011.24;;;24.38;47.01
42411;BME280;28056;51.112;0.984;2022-08-16T12:30:42;100008.62;;;25.10;47.19
42411;BME280;28056;51.112;0.984;2022-08-16T12:33:12;100006.37;;;24.51;46.14
42411;BME280;28056;51.112;0.984;2022-08-16T12:35:40;100004.64;;;24.52;45.55
42411;BME280;28056;51.112;0.984;2022-08-16T12:38:09;100002.83;;;24.28;45.93
42411;BME280;28056;51.112;0.984;2022-08-16T12:40:40;100001.64;;;24.33;46.66
42411;BME280;28056;51.112;0.984;2022-08-16T12:43:10;99998.14;;;24.12;45.85
42411;BME280;28056;51.112;0.984;2022-08-16T12:45:43;99995.17;;;24.74;45.05
42411;BME280;28056;51.112;0.984;2022-08-16T12:48:12;99991.75;;;25.36;44.38
42411;BME280;28056;51.112;0.984;2022-08-16T12:50:40;100000.47;;;25.07;43.93
42411;BME280;28056;51.112;0.984;2022-08-16T12:53:08;100001.84;;;25.86;41.84
42411;BME280;28056;51.112;0.984;2022-08-16T12:55:35;100003.90;;;26.06;41.04
42411;BME280;28056;51.112;0.984;2022-08-16T12:58:02;100003.55;;;27.02;40.36
42411;BME280;28056;51.112;0.984;2022-08-16T13:00:30;100003.56;;;26.55;41.25
42411;BME280;28056;51.112;0.984;2022-08-16T13:03:00;100004.18;;;27.06;39.60
42411;BME280;28056;51.112;0.984;2022-08-16T13:05:28;100001.60;;;26.36;41.53